createdAt,value
2023-04-30T00:00:28.766Z,12.05
2023-04-30T00:03:03.642Z,9.30
2023-04-30T00:05:36.402Z,8.52
2023-04-30T00:08:08.942Z,7.53
2023-04-30T00:10:43.701Z,9.07
2023-04-30T00:13:16.268Z,11.32
2023-04-30T00:15:48.799Z,9.95
2023-04-30T00:18:21.502Z,10.10
2023-04-30T00:20:54.039Z,13.38
2023-04-30T00:23:27.265Z,15.50
2023-04-30T00:25:59.867Z,10.18
2023-04-30T00:28:32.402Z,14.25
2023-04-30T00:31:06.936Z,10.57
2023-04-30T00:33:39.454Z,9.32
2023-04-30T00:36:12.234Z,11.02
2023-04-30T00:38:44.803Z,9.90
2023-04-30T00:41:17.750Z,11.32
2023-04-30T00:43:50.353Z,14.00
2023-04-30T00:46:23.084Z,9.23
2023-04-30T00:48:55.747Z,8.82
2023-04-30T00:51:29.487Z,8.63
2023-04-30T00:54:03.485Z,8.95
2023-04-30T00:56:36.363Z,10.10
2023-04-30T00:59:09.279Z,10.15
2023-04-30T01:01:42.048Z,11.65
2023-04-30T01:04:14.663Z,10.57
2023-04-30T01:06:47.396Z,8.60
2023-04-30T01:09:20.048Z,11.50
2023-04-30T01:12:09.748Z,8.23
2023-04-30T01:14:45.288Z,10.98
2023-04-30T01:17:31.537Z,12.23
2023-04-30T01:20:06.027Z,9.90
2023-04-30T01:23:04.998Z,7.68
2023-04-30T01:25:40.865Z,12.10
2023-04-30T01:28:16.932Z,9.20
2023-04-30T01:30:50.754Z,8.68
2023-04-30T01:33:23.301Z,10.13
2023-04-30T01:36:34.674Z,9.25
2023-04-30T01:39:26.422Z,9.50
2023-04-30T01:42:23.007Z,9.25
2023-04-30T01:45:11.507Z,8.98
2023-04-30T01:47:53.694Z,11.50
2023-04-30T01:50:48.361Z,7.70
2023-04-30T01:53:27.659Z,9.90
2023-04-30T01:56:06.398Z,9.27
2023-04-30T01:58:40.797Z,9.57
2023-04-30T02:01:32.760Z,10.52
2023-04-30T02:04:05.694Z,9.68
2023-04-30T02:06:38.359Z,10.93
2023-04-30T02:09:10.980Z,13.23
2023-04-30T02:11:43.464Z,10.05
2023-04-30T02:14:16.001Z,9.02
2023-04-30T02:16:48.542Z,13.95
2023-04-30T02:19:21.240Z,11.45
2023-04-30T02:21:53.903Z,10.07
2023-04-30T02:24:26.449Z,14.52
2023-04-30T02:26:58.919Z,14.02
2023-04-30T02:29:31.392Z,8.38
2023-04-30T02:32:04.432Z,11.48
2023-04-30T02:34:37.146Z,11.32
2023-04-30T02:37:10.125Z,9.32
2023-04-30T02:39:42.689Z,10.43
2023-04-30T02:42:15.236Z,10.88
2023-04-30T02:44:47.754Z,9.15
2023-04-30T02:47:20.439Z,13.18
2023-04-30T02:49:53.300Z,9.95
2023-04-30T02:52:26.277Z,13.48
2023-04-30T02:54:58.796Z,12.73
2023-04-30T02:57:31.343Z,11.88
2023-04-30T03:00:04.938Z,13.63
2023-04-30T03:02:37.668Z,9.65
2023-04-30T03:05:11.678Z,13.32
2023-04-30T03:07:44.223Z,9.40
2023-04-30T03:10:18.954Z,8.90
2023-04-30T03:12:51.503Z,8.95
2023-04-30T03:15:24.126Z,12.55
2023-04-30T03:17:56.751Z,10.27
2023-04-30T03:20:29.280Z,13.30
2023-04-30T03:23:01.821Z,12.00
2023-04-30T03:25:34.331Z,12.73
2023-04-30T03:28:06.813Z,12.52
2023-04-30T03:30:39.637Z,9.05
2023-04-30T03:33:12.462Z,11.25
2023-04-30T03:35:45.054Z,14.02
2023-04-30T03:38:18.023Z,17.98
2023-04-30T03:40:50.618Z,9.32
2023-04-30T03:43:23.192Z,12.10
2023-04-30T03:45:55.767Z,12.60
2023-04-30T03:48:28.451Z,10.80
2023-04-30T03:51:01.580Z,11.70
2023-04-30T03:53:34.188Z,11.05
2023-04-30T03:56:07.968Z,13.40
2023-04-30T03:58:40.637Z,12.50
2023-04-30T04:01:13.280Z,11.98
2023-04-30T04:03:46.075Z,13.95
2023-04-30T04:06:18.766Z,11.75
2023-04-30T04:08:51.362Z,15.05
2023-04-30T04:11:23.969Z,11.50
2023-04-30T04:13:56.504Z,13.70
2023-04-30T04:16:29.119Z,12.88
2023-04-30T04:19:01.886Z,11.48
2023-04-30T04:21:34.638Z,12.18
2023-04-30T04:24:08.650Z,11.90
2023-04-30T04:26:41.584Z,13.00
2023-04-30T04:29:14.061Z,12.40
2023-04-30T04:31:49.066Z,15.88
2023-04-30T04:34:22.082Z,12.15
2023-04-30T04:36:54.571Z,13.20
2023-04-30T04:39:27.172Z,12.50
2023-04-30T04:41:59.692Z,14.70
2023-04-30T04:44:32.725Z,14.07
2023-04-30T04:47:06.022Z,13.98
2023-04-30T04:49:38.563Z,15.73
2023-04-30T04:52:11.417Z,15.43
2023-04-30T04:54:43.993Z,13.52
2023-04-30T04:57:16.541Z,14.18
2023-04-30T04:59:49.182Z,14.43
2023-04-30T05:02:23.441Z,13.68
2023-04-30T05:04:56.267Z,14.70
2023-04-30T05:07:29.862Z,14.85
2023-04-30T05:10:02.436Z,12.35
2023-04-30T05:12:34.980Z,12.60
2023-04-30T05:15:08.240Z,15.18
2023-04-30T05:17:40.889Z,15.10
2023-04-30T05:20:13.659Z,16.27
2023-04-30T05:22:46.389Z,13.23
2023-04-30T05:25:18.866Z,14.63
2023-04-30T05:27:51.597Z,11.98
2023-04-30T05:30:24.224Z,11.85
2023-04-30T05:32:58.162Z,10.98
2023-04-30T05:35:31.657Z,17.27
2023-04-30T05:38:04.290Z,11.27
2023-04-30T05:40:36.862Z,13.35
2023-04-30T05:43:09.434Z,12.00
2023-04-30T05:45:41.942Z,10.40
2023-04-30T05:48:14.659Z,10.07
2023-04-30T05:50:47.175Z,17.67
2023-04-30T05:53:19.706Z,13.55
2023-04-30T05:55:52.320Z,10.98
2023-04-30T05:58:25.921Z,11.65
2023-04-30T06:00:59.269Z,12.25
2023-04-30T06:03:32.470Z,12.52
2023-04-30T06:06:05.199Z,10.55
2023-04-30T06:08:38.003Z,14.30
2023-04-30T06:11:12.964Z,14.18
2023-04-30T06:13:48.775Z,11.35
2023-04-30T06:16:21.608Z,11.18
2023-04-30T06:18:54.268Z,9.88
2023-04-30T06:21:26.890Z,9.77
2023-04-30T06:23:59.453Z,8.20
2023-04-30T06:26:32.703Z,9.88
2023-04-30T06:29:05.265Z,10.07
2023-04-30T06:31:37.806Z,10.70
2023-04-30T06:34:10.367Z,11.52
2023-04-30T06:36:42.928Z,9.48
2023-04-30T06:39:16.972Z,12.88
2023-04-30T06:41:49.556Z,10.88
2023-04-30T06:44:22.219Z,9.57
2023-04-30T06:46:54.908Z,8.68
2023-04-30T06:49:27.393Z,10.10
2023-04-30T06:52:00.072Z,11.93
2023-04-30T06:54:32.634Z,10.18
2023-04-30T06:57:05.637Z,10.20
2023-04-30T06:59:39.345Z,10.02
2023-04-30T07:02:11.960Z,13.15
2023-04-30T07:04:44.870Z,12.02
2023-04-30T07:07:17.437Z,9.75
2023-04-30T07:09:51.708Z,10.82
2023-04-30T07:12:24.982Z,11.30
2023-04-30T07:14:57.495Z,12.60
2023-04-30T07:17:30.328Z,10.40
2023-04-30T07:20:04.675Z,7.43
2023-04-30T07:22:37.229Z,10.40
2023-04-30T07:25:11.198Z,10.30
2023-04-30T07:27:44.917Z,12.35
2023-04-30T07:30:17.525Z,9.93
2023-04-30T07:32:50.228Z,13.80
2023-04-30T07:35:22.860Z,9.80
2023-04-30T07:37:56.271Z,12.88
2023-04-30T07:43:07.417Z,9.45
2023-04-30T07:45:40.324Z,9.25
2023-04-30T07:48:12.910Z,11.60
2023-04-30T07:50:50.062Z,10.98
2023-04-30T07:53:24.123Z,12.60
2023-04-30T07:55:56.675Z,12.38
2023-04-30T07:58:29.188Z,9.50
2023-04-30T08:01:01.853Z,8.02
2023-04-30T08:03:34.596Z,8.43
2023-04-30T08:06:07.831Z,8.10
2023-04-30T08:08:40.567Z,11.27
2023-04-30T08:11:13.157Z,11.95
2023-04-30T08:13:46.560Z,9.30
2023-04-30T08:16:19.238Z,9.85
2023-04-30T08:18:51.784Z,10.77
2023-04-30T08:21:24.725Z,8.57
2023-04-30T08:23:57.369Z,7.97
2023-04-30T08:26:29.977Z,9.65
2023-04-30T08:29:02.693Z,7.85
2023-04-30T08:31:35.797Z,6.90
2023-04-30T08:34:08.320Z,7.30
2023-04-30T08:36:40.957Z,9.02
2023-04-30T08:39:15.792Z,8.98
2023-04-30T08:41:57.011Z,11.68
2023-04-30T08:44:31.447Z,8.30
2023-04-30T08:47:04.766Z,7.72
2023-04-30T08:49:37.529Z,7.00
2023-04-30T08:52:11.087Z,7.03
2023-04-30T08:54:44.509Z,6.35
2023-04-30T08:57:17.120Z,12.85
2023-04-30T08:59:49.658Z,8.02
2023-04-30T09:02:22.268Z,8.35
2023-04-30T09:04:55.098Z,8.55
2023-04-30T09:07:29.060Z,9.48
2023-04-30T09:10:01.674Z,8.38
2023-04-30T09:12:35.235Z,17.25
2023-04-30T09:15:09.065Z,6.78
2023-04-30T09:17:41.586Z,8.82
2023-04-30T09:20:14.358Z,10.13
2023-04-30T09:22:46.983Z,8.55
2023-04-30T09:25:40.363Z,10.32
2023-04-30T09:28:14.069Z,7.55
2023-04-30T09:30:46.621Z,7.57
2023-04-30T09:33:19.412Z,7.95
2023-04-30T09:35:51.959Z,6.95
2023-04-30T09:38:33.115Z,8.23
2023-04-30T09:41:06.098Z,8.93
2023-04-30T09:43:45.064Z,7.95
2023-04-30T09:46:20.963Z,9.85
2023-04-30T09:49:02.408Z,7.55
2023-04-30T09:51:35.658Z,8.15
2023-04-30T09:54:11.664Z,10.98
2023-04-30T09:56:44.578Z,10.20
2023-04-30T09:59:21.654Z,9.60
2023-04-30T10:01:56.631Z,7.45
2023-04-30T10:04:33.418Z,9.13
2023-04-30T10:07:15.931Z,8.00
2023-04-30T10:10:11.571Z,6.60
2023-04-30T10:12:51.681Z,8.55
2023-04-30T10:15:39.900Z,6.47
2023-04-30T10:18:31.295Z,6.82
2023-04-30T10:21:12.076Z,6.93
2023-04-30T10:23:45.023Z,8.07
2023-04-30T10:26:17.984Z,6.28
2023-04-30T10:28:53.525Z,7.82
2023-04-30T10:31:27.099Z,7.13
2023-04-30T10:34:02.254Z,12.52
2023-04-30T10:36:44.554Z,6.25
2023-04-30T10:39:23.445Z,7.22
2023-04-30T10:42:05.847Z,6.82
2023-04-30T10:44:39.047Z,10.05
2023-04-30T10:47:11.899Z,6.30
2023-04-30T10:49:49.885Z,6.20
2023-04-30T10:52:30.521Z,7.57
2023-04-30T10:55:08.564Z,5.47
2023-04-30T10:57:43.681Z,6.88
2023-04-30T11:00:25.778Z,5.93
2023-04-30T11:03:04.117Z,6.85
2023-04-30T11:05:39.431Z,5.15
2023-04-30T11:08:12.043Z,6.40
2023-04-30T11:11:01.748Z,7.20
2023-04-30T11:13:44.078Z,5.88
2023-04-30T11:16:17.063Z,5.38
2023-04-30T11:18:51.660Z,5.07
2023-04-30T11:21:26.069Z,4.68
2023-04-30T11:24:04.727Z,8.52
2023-04-30T11:27:06.134Z,4.68
2023-04-30T11:29:40.200Z,4.25
2023-04-30T11:32:13.193Z,4.65
2023-04-30T11:34:46.852Z,4.30
2023-04-30T11:37:28.971Z,4.07
2023-04-30T11:40:08.624Z,4.38
2023-04-30T11:42:48.274Z,4.93
2023-04-30T11:45:20.903Z,4.40
2023-04-30T11:47:57.848Z,5.75
2023-04-30T11:50:33.850Z,5.28
2023-04-30T11:53:06.366Z,4.32
2023-04-30T11:55:41.668Z,3.85
2023-04-30T12:00:48.617Z,4.28
2023-04-30T12:03:21.421Z,4.75
2023-04-30T12:05:54.052Z,4.40
2023-04-30T12:08:26.735Z,4.80
2023-04-30T12:10:59.428Z,3.78
2023-04-30T12:13:32.070Z,3.00
2023-04-30T12:16:05.264Z,3.58
2023-04-30T12:18:37.865Z,4.03
2023-04-30T12:21:10.642Z,4.10
2023-04-30T12:23:45.120Z,4.00
2023-04-30T12:26:17.895Z,3.78
2023-04-30T12:28:52.682Z,5.35
2023-04-30T12:31:25.373Z,4.15
2023-04-30T12:33:58.133Z,5.88
2023-04-30T12:36:32.718Z,5.90
2023-04-30T12:39:16.331Z,3.35
2023-04-30T12:41:49.829Z,3.10
2023-04-30T12:44:27.662Z,2.55
2023-04-30T12:47:09.851Z,3.50
2023-04-30T12:49:48.683Z,3.22
2023-04-30T12:52:26.317Z,3.17
2023-04-30T12:55:23.977Z,3.40
2023-04-30T12:58:08.540Z,2.72
2023-04-30T13:00:50.965Z,3.15
2023-04-30T13:03:23.659Z,2.70
2023-04-30T13:05:56.430Z,1.88
2023-04-30T13:08:29.052Z,3.45
2023-04-30T13:11:01.607Z,2.90
2023-04-30T13:13:34.181Z,3.35
2023-04-30T13:16:06.939Z,2.88
2023-04-30T13:18:39.459Z,3.60
2023-04-30T13:21:12.664Z,5.13
2023-04-30T13:23:52.592Z,3.75
2023-04-30T13:26:26.504Z,2.80
2023-04-30T13:28:59.095Z,2.63
2023-04-30T13:31:31.863Z,4.60
2023-04-30T13:34:04.524Z,4.10
2023-04-30T13:36:37.197Z,2.90
2023-04-30T13:39:09.746Z,2.38
2023-04-30T13:41:42.333Z,3.42
2023-04-30T13:44:16.915Z,6.47
2023-04-30T13:46:50.129Z,2.92
2023-04-30T13:49:22.818Z,3.35
2023-04-30T13:51:55.441Z,2.65
2023-04-30T13:54:27.975Z,3.80
2023-04-30T13:57:00.774Z,2.20
2023-04-30T13:59:34.517Z,4.00
2023-04-30T14:02:07.573Z,2.85
2023-04-30T14:04:40.230Z,3.00
2023-04-30T14:07:12.941Z,2.70
2023-04-30T14:09:45.650Z,3.53
2023-04-30T14:12:18.506Z,3.70
2023-04-30T14:14:51.013Z,3.38
2023-04-30T14:17:25.108Z,2.55
2023-04-30T14:19:57.901Z,3.20
2023-04-30T14:22:31.138Z,2.53
2023-04-30T14:25:04.836Z,3.13
2023-04-30T14:27:37.359Z,2.10
2023-04-30T14:30:10.546Z,3.72
2023-04-30T14:32:43.088Z,3.15
2023-04-30T14:35:15.714Z,5.57
2023-04-30T14:37:48.303Z,4.53
2023-04-30T14:40:20.847Z,3.58
2023-04-30T14:42:53.393Z,3.85
2023-04-30T14:45:28.177Z,2.58
2023-04-30T14:48:03.984Z,3.55
2023-04-30T14:50:38.281Z,5.10
2023-04-30T14:53:12.479Z,2.92
2023-04-30T14:55:45.078Z,2.50
2023-04-30T14:58:17.696Z,4.45
2023-04-30T15:00:50.422Z,2.40
2023-04-30T15:03:23.228Z,3.13
2023-04-30T15:05:56.113Z,2.85
2023-04-30T15:08:28.817Z,3.63
2023-04-30T15:11:01.371Z,4.18
2023-04-30T15:13:34.227Z,3.20
2023-04-30T15:16:07.333Z,2.40
2023-04-30T15:18:43.759Z,3.08
2023-04-30T15:21:16.277Z,2.25
2023-04-30T15:23:49.669Z,3.53
2023-04-30T15:26:22.289Z,2.15
2023-04-30T15:28:57.708Z,3.72
2023-04-30T15:31:32.529Z,2.45
2023-04-30T15:34:05.354Z,2.30
2023-04-30T15:36:38.975Z,4.85
2023-04-30T15:39:11.539Z,3.08
2023-04-30T15:41:44.898Z,3.85
2023-04-30T15:44:17.471Z,3.00
2023-04-30T15:46:51.540Z,2.10
2023-04-30T15:49:24.160Z,3.03
2023-04-30T15:51:56.671Z,4.30
2023-04-30T15:54:29.292Z,2.28
2023-04-30T15:57:03.962Z,2.28
2023-04-30T15:59:36.530Z,3.30
2023-04-30T16:02:09.157Z,1.83
2023-04-30T16:04:41.987Z,1.90
2023-04-30T16:07:14.785Z,2.58
2023-04-30T16:09:49.060Z,1.92
2023-04-30T16:12:22.539Z,2.53
2023-04-30T16:14:55.238Z,5.45
2023-04-30T16:17:27.890Z,2.55
2023-04-30T16:20:01.639Z,3.55
2023-04-30T16:22:35.614Z,1.92
2023-04-30T16:25:10.029Z,1.95
2023-04-30T16:27:45.509Z,3.00
2023-04-30T16:30:18.106Z,2.65
2023-04-30T16:32:50.760Z,2.70
2023-04-30T16:35:26.642Z,2.88
2023-04-30T16:37:59.292Z,4.30
2023-04-30T16:40:32.136Z,2.20
2023-04-30T16:43:06.233Z,3.05
2023-04-30T16:45:38.949Z,2.40
2023-04-30T16:48:11.668Z,2.08
2023-04-30T16:50:44.500Z,2.03
2023-04-30T16:53:17.059Z,2.45
2023-04-30T16:55:51.127Z,2.80
2023-04-30T16:58:23.654Z,4.15
2023-04-30T17:00:56.306Z,3.10
2023-04-30T17:03:30.603Z,4.13
2023-04-30T17:06:06.432Z,2.90
2023-04-30T17:08:40.343Z,2.80
2023-04-30T17:11:12.870Z,4.07
2023-04-30T17:13:45.371Z,2.58
2023-04-30T17:16:17.939Z,1.70
2023-04-30T17:18:50.555Z,2.25
2023-04-30T17:21:23.175Z,5.65
2023-04-30T17:23:56.434Z,2.55
2023-04-30T17:26:28.943Z,1.70
2023-04-30T17:29:01.483Z,2.67
2023-04-30T17:31:34.184Z,4.75
2023-04-30T17:34:07.038Z,3.08
2023-04-30T17:36:39.567Z,3.72
2023-04-30T17:39:12.703Z,1.90
2023-04-30T17:41:48.901Z,1.38
2023-04-30T17:44:21.800Z,1.75
2023-04-30T17:46:54.726Z,1.30
2023-04-30T17:49:28.465Z,2.17
2023-04-30T17:52:01.290Z,2.75
2023-04-30T17:54:34.001Z,2.72
2023-04-30T17:57:06.581Z,4.40
2023-04-30T17:59:39.914Z,4.00
2023-04-30T18:02:12.566Z,1.85
2023-04-30T18:04:45.346Z,1.20
2023-04-30T18:07:17.874Z,1.90
2023-04-30T18:09:50.756Z,2.95
2023-04-30T18:12:23.424Z,2.58
2023-04-30T18:14:56.171Z,4.45
2023-04-30T18:17:28.720Z,2.80
2023-04-30T18:20:04.301Z,1.63
2023-04-30T18:22:43.043Z,1.77
2023-04-30T18:25:17.153Z,2.90
2023-04-30T18:27:49.960Z,3.60
2023-04-30T18:30:22.958Z,1.40
2023-04-30T18:32:55.703Z,1.40
2023-04-30T18:35:28.527Z,2.13
2023-04-30T18:38:01.867Z,2.45
2023-04-30T18:40:34.602Z,1.48
2023-04-30T18:43:07.251Z,2.85
2023-04-30T18:45:39.756Z,2.30
2023-04-30T18:48:15.060Z,3.20
2023-04-30T18:50:50.528Z,2.13
2023-04-30T18:53:24.989Z,2.75
2023-04-30T18:55:58.262Z,2.90
2023-04-30T18:58:30.800Z,2.28
2023-04-30T19:01:04.400Z,2.20
2023-04-30T19:03:37.359Z,3.28
2023-04-30T19:06:10.201Z,1.33
2023-04-30T19:08:45.571Z,4.53
2023-04-30T19:11:19.032Z,5.18
2023-04-30T19:13:54.557Z,3.97
2023-04-30T19:16:27.460Z,2.53
2023-04-30T19:19:00.048Z,5.63
2023-04-30T19:21:34.717Z,3.65
2023-04-30T19:24:09.555Z,2.83
2023-04-30T19:26:43.193Z,6.45
2023-04-30T19:29:15.817Z,2.35
2023-04-30T19:31:48.525Z,3.17
2023-04-30T19:34:21.171Z,2.28
2023-04-30T19:36:53.701Z,1.98
2023-04-30T19:39:31.576Z,1.40
2023-04-30T19:42:04.154Z,3.70
2023-04-30T19:44:37.111Z,2.35
2023-04-30T19:47:18.851Z,1.77
2023-04-30T19:49:54.402Z,1.95
2023-04-30T19:52:35.678Z,1.80
2023-04-30T19:55:09.360Z,2.47
2023-04-30T19:57:41.955Z,2.15
2023-04-30T20:00:16.096Z,7.10
2023-04-30T20:02:48.645Z,1.65
2023-04-30T20:05:21.826Z,2.22
2023-04-30T20:07:54.405Z,1.75
2023-04-30T20:10:27.289Z,3.15
2023-04-30T20:12:59.924Z,5.22
2023-04-30T20:15:35.733Z,2.42
2023-04-30T20:20:41.478Z,2.50
2023-04-30T20:23:17.663Z,2.10
2023-04-30T20:25:50.978Z,3.72
2023-04-30T20:28:23.668Z,3.38
2023-04-30T20:30:56.635Z,2.53
2023-04-30T20:33:29.278Z,2.13
2023-04-30T20:36:02.719Z,3.13
2023-04-30T20:38:35.392Z,2.95
2023-04-30T20:41:07.986Z,4.25
2023-04-30T20:43:41.761Z,5.30
2023-04-30T20:46:14.815Z,5.35
2023-04-30T20:48:47.364Z,4.18
2023-04-30T20:51:19.931Z,1.90
2023-04-30T20:53:53.641Z,3.05
2023-04-30T20:56:27.023Z,2.78
2023-04-30T20:58:59.600Z,2.78
2023-04-30T21:01:32.398Z,1.98
2023-04-30T21:04:05.359Z,5.40
2023-04-30T21:06:38.395Z,6.03
2023-04-30T21:09:12.481Z,3.20
2023-04-30T21:11:45.031Z,4.00
2023-04-30T21:14:17.906Z,7.00
2023-04-30T21:16:51.357Z,8.15
2023-04-30T21:19:27.070Z,3.10
2023-04-30T21:21:59.959Z,4.68
2023-04-30T21:24:32.524Z,4.65
2023-04-30T21:27:06.108Z,5.53
2023-04-30T21:29:43.594Z,2.25
2023-04-30T21:32:16.731Z,1.92
2023-04-30T21:34:49.411Z,4.90
2023-04-30T21:37:22.345Z,6.03
2023-04-30T21:39:56.528Z,3.85
2023-04-30T21:42:29.721Z,5.10
2023-04-30T21:45:02.227Z,8.95
2023-04-30T21:47:34.784Z,3.47
2023-04-30T21:50:08.590Z,3.28
2023-04-30T21:52:41.508Z,5.78
2023-04-30T21:55:14.012Z,3.22
2023-04-30T21:57:47.392Z,3.85
2023-04-30T22:00:21.101Z,2.55
2023-04-30T22:02:54.227Z,2.97
2023-04-30T22:05:27.323Z,4.88
2023-04-30T22:08:00.038Z,3.03
2023-04-30T22:10:33.018Z,3.42
2023-04-30T22:13:05.549Z,10.25
2023-04-30T22:15:47.697Z,5.55
2023-04-30T22:18:22.624Z,3.53
2023-04-30T22:20:55.124Z,3.13
2023-04-30T22:23:28.684Z,4.30
2023-04-30T22:26:01.528Z,3.17
2023-04-30T22:28:34.057Z,4.72
2023-04-30T22:31:06.678Z,6.18
2023-04-30T22:33:42.046Z,5.18
2023-04-30T22:36:14.581Z,3.80
2023-04-30T22:38:47.083Z,4.32
2023-04-30T22:41:21.981Z,5.30
2023-04-30T22:43:54.539Z,4.50
2023-04-30T22:46:27.292Z,4.07
2023-04-30T22:49:01.098Z,3.00
2023-04-30T22:51:36.379Z,4.03
2023-04-30T22:54:09.814Z,5.38
2023-04-30T22:56:42.362Z,2.63
2023-04-30T22:59:16.067Z,7.00
2023-04-30T23:01:49.267Z,9.60
2023-04-30T23:04:22.545Z,3.10
2023-04-30T23:06:55.863Z,3.10
2023-04-30T23:09:28.707Z,4.32
2023-04-30T23:12:02.074Z,4.28
2023-04-30T23:14:34.600Z,3.00
2023-04-30T23:17:07.331Z,1.95
2023-04-30T23:19:40.017Z,2.65
2023-04-30T23:22:12.644Z,4.75
2023-04-30T23:24:45.149Z,2.88
2023-04-30T23:27:17.638Z,5.20
2023-04-30T23:29:50.746Z,4.05
2023-04-30T23:32:23.462Z,6.43
2023-04-30T23:34:56.101Z,5.55
2023-04-30T23:37:28.707Z,4.18
2023-04-30T23:40:01.453Z,4.47
2023-04-30T23:42:34.521Z,2.97
2023-04-30T23:45:08.589Z,4.40
2023-04-30T23:47:41.128Z,5.68
2023-04-30T23:50:13.695Z,11.05
2023-04-30T23:52:46.290Z,11.32
2023-04-30T23:55:19.083Z,4.22
2023-04-30T23:57:51.825Z,4.88
